LZKZ/KSC METAR and TAF weather

Enter ICAO airport designator
Station Type Date Time Source
LZKZ METAR 2020/04/03 23:00 UTC NOAA

LZKZ 032300Z 01009KT CAVOK 08/M03 Q1018


Station Type Date Time Source
LZKZ Decoded METAR 2020/04/03 23:00 UTC NOAA

Kosice, Barca, Slovakia (LZKZ) 48-39-47N 021-14-28E
Apr 03, 2020 - 07:00 PM EDT / 2020.04.03 2300 UTC
Wind: from the N (010 degrees) at 10 MPH (9 KT):0
Visibility: greater than 7 mile(s):0
Temperature: 46 F (8 C)
Dew Point: 26 F (-3 C)
Relative Humidity: 45%
Pressure (altimeter): 30.06 in. Hg (1018 hPa)
ob: LZKZ 032300Z 01009KT CAVOK 08/M03 Q1018
cycle: 23

Station Type Date Time Source
LZKZ TAF 2020/04/03 18:51 UTC NOAA

TAF LZKZ 031700Z 0318/0418 20010KT CAVOK
BECMG 0318/0320 20004KT
TEMPO 0320/0322 01010KT
TEMPO 0410/0418 01015G25KT 9999 SCT045

Example: see airport list